sensor_id;sensor_type;location;lat;lon;timestamp;P1;durP1;ratioP1;P2;durP2;ratioP2
51194;SDS011;37259;49.972;19.850;2023-08-06T00:00:44;8;;;5.1;;
51194;SDS011;37259;49.972;19.850;2023-08-06T00:01:44;8;;;5.1;;
51194;SDS011;37259;49.972;19.850;2023-08-06T00:02:44;8;;;5.1;;
51194;SDS011;37259;49.972;19.850;2023-08-06T00:03:44;8;;;5.1;;
51194;SDS011;37259;49.972;19.850;2023-08-06T00:04:44;8;;;5.1;;
51194;SDS011;37259;49.972;19.850;2023-08-06T00:05:44;8;;;5.1;;
51194;SDS011;37259;49.972;19.850;2023-08-06T00:06:44;8;;;5.1;;
51194;SDS011;37259;49.972;19.850;2023-08-06T00:07:44;8;;;5.1;;
51194;SDS011;37259;49.972;19.850;2023-08-06T00:08:44;8;;;5.1;;
51194;SDS011;37259;49.972;19.850;2023-08-06T00:09:44;8;;;5.1;;
51194;SDS011;37259;49.972;19.850;2023-08-06T00:10:44;8.4;;;5.6;;
51194;SDS011;37259;49.972;19.850;2023-08-06T00:11:44;8.4;;;5.6;;
51194;SDS011;37259;49.972;19.850;2023-08-06T00:12:44;8.4;;;5.6;;
51194;SDS011;37259;49.972;19.850;2023-08-06T00:13:44;8.4;;;5.6;;
51194;SDS011;37259;49.972;19.850;2023-08-06T00:14:44;8.4;;;5.6;;
51194;SDS011;37259;49.972;19.850;2023-08-06T00:15:44;8.4;;;5.6;;
51194;SDS011;37259;49.972;19.850;2023-08-06T00:16:44;8.4;;;5.6;;
51194;SDS011;37259;49.972;19.850;2023-08-06T00:17:44;8.4;;;5.6;;
51194;SDS011;37259;49.972;19.850;2023-08-06T00:18:44;8.4;;;5.6;;
51194;SDS011;37259;49.972;19.850;2023-08-06T00:19:44;8.4;;;5.6;;
51194;SDS011;37259;49.972;19.850;2023-08-06T00:20:44;8.4;;;5.6;;
51194;SDS011;37259;49.972;19.850;2023-08-06T00:21:44;8.4;;;5.6;;
51194;SDS011;37259;49.972;19.850;2023-08-06T00:22:44;8.4;;;5.6;;
51194;SDS011;37259;49.972;19.850;2023-08-06T00:23:44;8.4;;;5.6;;
51194;SDS011;37259;49.972;19.850;2023-08-06T00:25:44;8.4;;;5.6;;
51194;SDS011;37259;49.972;19.850;2023-08-06T00:26:44;8.4;;;5.6;;
51194;SDS011;37259;49.972;19.850;2023-08-06T00:27:44;8.4;;;5.6;;
51194;SDS011;37259;49.972;19.850;2023-08-06T00:28:44;8.4;;;5.6;;
51194;SDS011;37259;49.972;19.850;2023-08-06T00:29:44;8.4;;;5.6;;
51194;SDS011;37259;49.972;19.850;2023-08-06T00:30:44;8.4;;;5.6;;
51194;SDS011;37259;49.972;19.850;2023-08-06T00:31:44;8.4;;;5.6;;
51194;SDS011;37259;49.972;19.850;2023-08-06T00:32:44;8.4;;;5.6;;
51194;SDS011;37259;49.972;19.850;2023-08-06T00:33:44;8.4;;;5.6;;
51194;SDS011;37259;49.972;19.850;2023-08-06T00:34:44;8.4;;;5.6;;
51194;SDS011;37259;49.972;19.850;2023-08-06T00:35:44;8.4;;;5.6;;
51194;SDS011;37259;49.972;19.850;2023-08-06T00:36:44;8.4;;;5.6;;
51194;SDS011;37259;49.972;19.850;2023-08-06T00:37:44;8.4;;;5.6;;
51194;SDS011;37259;49.972;19.850;2023-08-06T00:38:44;8.4;;;5.6;;
51194;SDS011;37259;49.972;19.850;2023-08-06T00:39:44;8.4;;;5.6;;
51194;SDS011;37259;49.972;19.850;2023-08-06T00:40:44;13.6;;;10.7;;
51194;SDS011;37259;49.972;19.850;2023-08-06T00:41:44;13.6;;;10.7;;
51194;SDS011;37259;49.972;19.850;2023-08-06T00:42:44;13.6;;;10.7;;
51194;SDS011;37259;49.972;19.850;2023-08-06T00:43:44;13.6;;;10.7;;
51194;SDS011;37259;49.972;19.850;2023-08-06T00:44:44;13.6;;;10.7;;
51194;SDS011;37259;49.972;19.850;2023-08-06T00:45:44;13.6;;;10.7;;
51194;SDS011;37259;49.972;19.850;2023-08-06T00:46:44;13.6;;;10.7;;
51194;SDS011;37259;49.972;19.850;2023-08-06T00:47:44;13.6;;;10.7;;
51194;SDS011;37259;49.972;19.850;2023-08-06T00:48:44;13.6;;;10.7;;
51194;SDS011;37259;49.972;19.850;2023-08-06T00:49:44;13.6;;;10.7;;
51194;SDS011;37259;49.972;19.850;2023-08-06T00:50:44;13.6;;;10.7;;
51194;SDS011;37259;49.972;19.850;2023-08-06T00:51:44;13.6;;;10.7;;
51194;SDS011;37259;49.972;19.850;2023-08-06T00:52:44;13.6;;;10.7;;
51194;SDS011;37259;49.972;19.850;2023-08-06T00:53:44;13.6;;;10.7;;
51194;SDS011;37259;49.972;19.850;2023-08-06T00:54:44;13.6;;;10.7;;
51194;SDS011;37259;49.972;19.850;2023-08-06T00:55:44;13.6;;;10.7;;
51194;SDS011;37259;49.972;19.850;2023-08-06T00:56:44;13.6;;;10.7;;
51194;SDS011;37259;49.972;19.850;2023-08-06T00:57:44;13.6;;;10.7;;
51194;SDS011;37259;49.972;19.850;2023-08-06T00:58:44;13.6;;;10.7;;
51194;SDS011;37259;49.972;19.850;2023-08-06T00:59:44;13.6;;;10.7;;
51194;SDS011;37259;49.972;19.850;2023-08-06T01:00:44;13.6;;;10.7;;
51194;SDS011;37259;49.972;19.850;2023-08-06T01:01:44;13.6;;;10.7;;
51194;SDS011;37259;49.972;19.850;2023-08-06T01:02:44;13.6;;;10.7;;
51194;SDS011;37259;49.972;19.850;2023-08-06T01:03:44;13.6;;;10.7;;
51194;SDS011;37259;49.972;19.850;2023-08-06T01:04:44;13.6;;;10.7;;
51194;SDS011;37259;49.972;19.850;2023-08-06T01:05:44;13.6;;;10.7;;
51194;SDS011;37259;49.972;19.850;2023-08-06T01:06:44;13.6;;;10.7;;
51194;SDS011;37259;49.972;19.850;2023-08-06T01:07:45;13.6;;;10.7;;
51194;SDS011;37259;49.972;19.850;2023-08-06T01:08:45;13.6;;;10.7;;
51194;SDS011;37259;49.972;19.850;2023-08-06T01:09:45;13.6;;;10.7;;
51194;SDS011;37259;49.972;19.850;2023-08-06T01:10:46;19.7;;;17.1;;
51194;SDS011;37259;49.972;19.850;2023-08-06T01:11:44;19.7;;;17.1;;
51194;SDS011;37259;49.972;19.850;2023-08-06T01:12:45;19.7;;;17.1;;
51194;SDS011;37259;49.972;19.850;2023-08-06T01:13:45;19.7;;;17.1;;
51194;SDS011;37259;49.972;19.850;2023-08-06T01:14:45;19.7;;;17.1;;
51194;SDS011;37259;49.972;19.850;2023-08-06T01:15:45;19.7;;;17.1;;
51194;SDS011;37259;49.972;19.850;2023-08-06T01:16:44;19.7;;;17.1;;
51194;SDS011;37259;49.972;19.850;2023-08-06T01:17:44;19.7;;;17.1;;
51194;SDS011;37259;49.972;19.850;2023-08-06T01:18:44;19.7;;;17.1;;
51194;SDS011;37259;49.972;19.850;2023-08-06T01:19:44;19.7;;;17.1;;
51194;SDS011;37259;49.972;19.850;2023-08-06T01:20:44;19.7;;;17.1;;
51194;SDS011;37259;49.972;19.850;2023-08-06T01:21:44;19.7;;;17.1;;
51194;SDS011;37259;49.972;19.850;2023-08-06T01:22:44;19.7;;;17.1;;
51194;SDS011;37259;49.972;19.850;2023-08-06T01:23:44;19.7;;;17.1;;
51194;SDS011;37259;49.972;19.850;2023-08-06T01:24:45;19.7;;;17.1;;
51194;SDS011;37259;49.972;19.850;2023-08-06T01:25:46;19.7;;;17.1;;
51194;SDS011;37259;49.972;19.850;2023-08-06T01:26:45;19.7;;;17.1;;
51194;SDS011;37259;49.972;19.850;2023-08-06T01:27:44;19.7;;;17.1;;
51194;SDS011;37259;49.972;19.850;2023-08-06T01:28:45;19.7;;;17.1;;
51194;SDS011;37259;49.972;19.850;2023-08-06T01:29:44;19.7;;;17.1;;
51194;SDS011;37259;49.972;19.850;2023-08-06T01:30:44;19.7;;;17.1;;
51194;SDS011;37259;49.972;19.850;2023-08-06T01:31:44;19.7;;;17.1;;
51194;SDS011;37259;49.972;19.850;2023-08-06T01:32:44;19.7;;;17.1;;
51194;SDS011;37259;49.972;19.850;2023-08-06T01:33:44;19.7;;;17.1;;
51194;SDS011;37259;49.972;19.850;2023-08-06T01:34:44;19.7;;;17.1;;
51194;SDS011;37259;49.972;19.850;2023-08-06T01:35:44;19.7;;;17.1;;
51194;SDS011;37259;49.972;19.850;2023-08-06T01:36:44;19.7;;;17.1;;
51194;SDS011;37259;49.972;19.850;2023-08-06T01:37:44;19.7;;;17.1;;
51194;SDS011;37259;49.972;19.850;2023-08-06T01:38:44;19.7;;;17.1;;
51194;SDS011;37259;49.972;19.850;2023-08-06T01:39:44;19.7;;;17.1;;
51194;SDS011;37259;49.972;19.850;2023-08-06T01:40:44;28.5;;;18.1;;
51194;SDS011;37259;49.972;19.850;2023-08-06T01:41:44;28.5;;;18.1;;
51194;SDS011;37259;49.972;19.850;2023-08-06T01:42:44;28.5;;;18.1;;
51194;SDS011;37259;49.972;19.850;2023-08-06T01:43:44;28.5;;;18.1;;
51194;SDS011;37259;49.972;19.850;2023-08-06T01:44:44;28.5;;;18.1;;
51194;SDS011;37259;49.972;19.850;2023-08-06T01:45:44;28.5;;;18.1;;
51194;SDS011;37259;49.972;19.850;2023-08-06T01:46:44;28.5;;;18.1;;
51194;SDS011;37259;49.972;19.850;2023-08-06T01:47:44;28.5;;;18.1;;
51194;SDS011;37259;49.972;19.850;2023-08-06T01:48:44;28.5;;;18.1;;
51194;SDS011;37259;49.972;19.850;2023-08-06T01:49:44;28.5;;;18.1;;
51194;SDS011;37259;49.972;19.850;2023-08-06T01:50:44;28.5;;;18.1;;
51194;SDS011;37259;49.972;19.850;2023-08-06T01:51:44;28.5;;;18.1;;
51194;SDS011;37259;49.972;19.850;2023-08-06T01:52:44;28.5;;;18.1;;
51194;SDS011;37259;49.972;19.850;2023-08-06T01:53:44;28.5;;;18.1;;
51194;SDS011;37259;49.972;19.850;2023-08-06T01:54:44;28.5;;;18.1;;
51194;SDS011;37259;49.972;19.850;2023-08-06T01:55:47;28.5;;;18.1;;
51194;SDS011;37259;49.972;19.850;2023-08-06T01:56:44;28.5;;;18.1;;
51194;SDS011;37259;49.972;19.850;2023-08-06T01:57:44;28.5;;;18.1;;
51194;SDS011;37259;49.972;19.850;2023-08-06T01:58:44;28.5;;;18.1;;
51194;SDS011;37259;49.972;19.850;2023-08-06T01:59:44;28.5;;;18.1;;
51194;SDS011;37259;49.972;19.850;2023-08-06T02:00:44;28.5;;;18.1;;
51194;SDS011;37259;49.972;19.850;2023-08-06T02:01:44;28.5;;;18.1;;
51194;SDS011;37259;49.972;19.850;2023-08-06T02:02:44;28.5;;;18.1;;
51194;SDS011;37259;49.972;19.850;2023-08-06T02:03:44;28.5;;;18.1;;
51194;SDS011;37259;49.972;19.850;2023-08-06T02:04:44;28.5;;;18.1;;
51194;SDS011;37259;49.972;19.850;2023-08-06T02:05:44;28.5;;;18.1;;
51194;SDS011;37259;49.972;19.850;2023-08-06T02:06:44;28.5;;;18.1;;
51194;SDS011;37259;49.972;19.850;2023-08-06T02:07:44;28.5;;;18.1;;
51194;SDS011;37259;49.972;19.850;2023-08-06T02:08:44;28.5;;;18.1;;
51194;SDS011;37259;49.972;19.850;2023-08-06T02:09:44;28.5;;;18.1;;
51194;SDS011;37259;49.972;19.850;2023-08-06T02:10:44;18.2;;;13.8;;
51194;SDS011;37259;49.972;19.850;2023-08-06T02:11:44;18.2;;;13.8;;
51194;SDS011;37259;49.972;19.850;2023-08-06T02:12:44;18.2;;;13.8;;
51194;SDS011;37259;49.972;19.850;2023-08-06T02:13:44;18.2;;;13.8;;
51194;SDS011;37259;49.972;19.850;2023-08-06T02:14:44;18.2;;;13.8;;
51194;SDS011;37259;49.972;19.850;2023-08-06T02:15:44;18.2;;;13.8;;
51194;SDS011;37259;49.972;19.850;2023-08-06T02:16:44;18.2;;;13.8;;
51194;SDS011;37259;49.972;19.850;2023-08-06T02:17:44;18.2;;;13.8;;
51194;SDS011;37259;49.972;19.850;2023-08-06T02:18:44;18.2;;;13.8;;
51194;SDS011;37259;49.972;19.850;2023-08-06T02:19:44;18.2;;;13.8;;
51194;SDS011;37259;49.972;19.850;2023-08-06T02:20:54;18.2;;;13.8;;
51194;SDS011;37259;49.972;19.850;2023-08-06T02:21:44;18.2;;;13.8;;
51194;SDS011;37259;49.972;19.850;2023-08-06T02:22:44;18.2;;;13.8;;
51194;SDS011;37259;49.972;19.850;2023-08-06T02:23:44;18.2;;;13.8;;
51194;SDS011;37259;49.972;19.850;2023-08-06T02:24:44;18.2;;;13.8;;
51194;SDS011;37259;49.972;19.850;2023-08-06T02:25:44;18.2;;;13.8;;
51194;SDS011;37259;49.972;19.850;2023-08-06T02:26:44;18.2;;;13.8;;
51194;SDS011;37259;49.972;19.850;2023-08-06T02:27:44;18.2;;;13.8;;
51194;SDS011;37259;49.972;19.850;2023-08-06T02:28:44;18.2;;;13.8;;
51194;SDS011;37259;49.972;19.850;2023-08-06T02:29:44;18.2;;;13.8;;
51194;SDS011;37259;49.972;19.850;2023-08-06T02:30:49;18.2;;;13.8;;
51194;SDS011;37259;49.972;19.850;2023-08-06T02:31:44;18.2;;;13.8;;
51194;SDS011;37259;49.972;19.850;2023-08-06T02:32:44;18.2;;;13.8;;
51194;SDS011;37259;49.972;19.850;2023-08-06T02:33:44;18.2;;;13.8;;
51194;SDS011;37259;49.972;19.850;2023-08-06T02:34:44;18.2;;;13.8;;
51194;SDS011;37259;49.972;19.850;2023-08-06T02:35:44;18.2;;;13.8;;
51194;SDS011;37259;49.972;19.850;2023-08-06T02:36:44;18.2;;;13.8;;
51194;SDS011;37259;49.972;19.850;2023-08-06T02:37:44;18.2;;;13.8;;
51194;SDS011;37259;49.972;19.850;2023-08-06T02:38:44;18.2;;;13.8;;
51194;SDS011;37259;49.972;19.850;2023-08-06T02:39:44;18.2;;;13.8;;
51194;SDS011;37259;49.972;19.850;2023-08-06T02:40:44;15.4;;;11.9;;
51194;SDS011;37259;49.972;19.850;2023-08-06T02:41:44;15.4;;;11.9;;
51194;SDS011;37259;49.972;19.850;2023-08-06T02:42:44;15.4;;;11.9;;
51194;SDS011;37259;49.972;19.850;2023-08-06T02:43:44;15.4;;;11.9;;
51194;SDS011;37259;49.972;19.850;2023-08-06T02:44:44;15.4;;;11.9;;
51194;SDS011;37259;49.972;19.850;2023-08-06T02:45:44;15.4;;;11.9;;
51194;SDS011;37259;49.972;19.850;2023-08-06T02:46:44;15.4;;;11.9;;
51194;SDS011;37259;49.972;19.850;2023-08-06T02:47:44;15.4;;;11.9;;
51194;SDS011;37259;49.972;19.850;2023-08-06T02:48:44;15.4;;;11.9;;
51194;SDS011;37259;49.972;19.850;2023-08-06T02:49:44;15.4;;;11.9;;
51194;SDS011;37259;49.972;19.850;2023-08-06T02:50:44;15.4;;;11.9;;
51194;SDS011;37259;49.972;19.850;2023-08-06T02:51:44;15.4;;;11.9;;
51194;SDS011;37259;49.972;19.850;2023-08-06T02:52:44;15.4;;;11.9;;
51194;SDS011;37259;49.972;19.850;2023-08-06T02:53:44;15.4;;;11.9;;
51194;SDS011;37259;49.972;19.850;2023-08-06T02:54:44;15.4;;;11.9;;
51194;SDS011;37259;49.972;19.850;2023-08-06T02:55:45;15.4;;;11.9;;
51194;SDS011;37259;49.972;19.850;2023-08-06T02:56:44;15.4;;;11.9;;
51194;SDS011;37259;49.972;19.850;2023-08-06T02:57:44;15.4;;;11.9;;
51194;SDS011;37259;49.972;19.850;2023-08-06T02:58:44;15.4;;;11.9;;
51194;SDS011;37259;49.972;19.850;2023-08-06T02:59:44;15.4;;;11.9;;
51194;SDS011;37259;49.972;19.850;2023-08-06T03:00:44;15.4;;;11.9;;
51194;SDS011;37259;49.972;19.850;2023-08-06T03:01:44;15.4;;;11.9;;
51194;SDS011;37259;49.972;19.850;2023-08-06T03:02:44;15.4;;;11.9;;
51194;SDS011;37259;49.972;19.850;2023-08-06T03:03:44;15.4;;;11.9;;
51194;SDS011;37259;49.972;19.850;2023-08-06T03:04:44;15.4;;;11.9;;
51194;SDS011;37259;49.972;19.850;2023-08-06T03:05:50;15.4;;;11.9;;
51194;SDS011;37259;49.972;19.850;2023-08-06T03:06:44;15.4;;;11.9;;
51194;SDS011;37259;49.972;19.850;2023-08-06T03:07:44;15.4;;;11.9;;
51194;SDS011;37259;49.972;19.850;2023-08-06T03:08:44;15.4;;;11.9;;
51194;SDS011;37259;49.972;19.850;2023-08-06T03:09:44;15.4;;;11.9;;
51194;SDS011;37259;49.972;19.850;2023-08-06T03:10:44;14.5;;;10.3;;
51194;SDS011;37259;49.972;19.850;2023-08-06T03:11:44;14.5;;;10.3;;
51194;SDS011;37259;49.972;19.850;2023-08-06T03:12:44;14.5;;;10.3;;
51194;SDS011;37259;49.972;19.850;2023-08-06T03:13:44;14.5;;;10.3;;
51194;SDS011;37259;49.972;19.850;2023-08-06T03:14:44;14.5;;;10.3;;
51194;SDS011;37259;49.972;19.850;2023-08-06T03:15:51;14.5;;;10.3;;
51194;SDS011;37259;49.972;19.850;2023-08-06T03:16:44;14.5;;;10.3;;
51194;SDS011;37259;49.972;19.850;2023-08-06T03:17:44;14.5;;;10.3;;
51194;SDS011;37259;49.972;19.850;2023-08-06T03:18:44;14.5;;;10.3;;
51194;SDS011;37259;49.972;19.850;2023-08-06T03:19:44;14.5;;;10.3;;
51194;SDS011;37259;49.972;19.850;2023-08-06T03:20:44;14.5;;;10.3;;
51194;SDS011;37259;49.972;19.850;2023-08-06T03:21:44;14.5;;;10.3;;
51194;SDS011;37259;49.972;19.850;2023-08-06T03:22:44;14.5;;;10.3;;
51194;SDS011;37259;49.972;19.850;2023-08-06T03:23:46;14.5;;;10.3;;
51194;SDS011;37259;49.972;19.850;2023-08-06T03:24:44;14.5;;;10.3;;
51194;SDS011;37259;49.972;19.850;2023-08-06T03:25:44;14.5;;;10.3;;
51194;SDS011;37259;49.972;19.850;2023-08-06T03:26:44;14.5;;;10.3;;
51194;SDS011;37259;49.972;19.850;2023-08-06T03:27:44;14.5;;;10.3;;
51194;SDS011;37259;49.972;19.850;2023-08-06T03:28:44;14.5;;;10.3;;
51194;SDS011;37259;49.972;19.850;2023-08-06T03:29:44;14.5;;;10.3;;
51194;SDS011;37259;49.972;19.850;2023-08-06T03:30:44;14.5;;;10.3;;
51194;SDS011;37259;49.972;19.850;2023-08-06T03:31:44;14.5;;;10.3;;
51194;SDS011;37259;49.972;19.850;2023-08-06T03:32:44;14.5;;;10.3;;
51194;SDS011;37259;49.972;19.850;2023-08-06T03:33:44;14.5;;;10.3;;
51194;SDS011;37259;49.972;19.850;2023-08-06T03:34:45;14.5;;;10.3;;
51194;SDS011;37259;49.972;19.850;2023-08-06T03:35:44;14.5;;;10.3;;
51194;SDS011;37259;49.972;19.850;2023-08-06T03:36:44;14.5;;;10.3;;
51194;SDS011;37259;49.972;19.850;2023-08-06T03:37:44;14.5;;;10.3;;
51194;SDS011;37259;49.972;19.850;2023-08-06T03:38:44;14.5;;;10.3;;
51194;SDS011;37259;49.972;19.850;2023-08-06T03:39:44;14.5;;;10.3;;
51194;SDS011;37259;49.972;19.850;2023-08-06T03:40:44;18;;;13.4;;
51194;SDS011;37259;49.972;19.850;2023-08-06T03:41:44;18;;;13.4;;
51194;SDS011;37259;49.972;19.850;2023-08-06T03:42:44;18;;;13.4;;
51194;SDS011;37259;49.972;19.850;2023-08-06T03:43:44;18;;;13.4;;
51194;SDS011;37259;49.972;19.850;2023-08-06T03:44:44;18;;;13.4;;
51194;SDS011;37259;49.972;19.850;2023-08-06T03:45:44;18;;;13.4;;
51194;SDS011;37259;49.972;19.850;2023-08-06T03:46:44;18;;;13.4;;
51194;SDS011;37259;49.972;19.850;2023-08-06T03:47:44;18;;;13.4;;
51194;SDS011;37259;49.972;19.850;2023-08-06T03:48:44;18;;;13.4;;
51194;SDS011;37259;49.972;19.850;2023-08-06T03:49:44;18;;;13.4;;
51194;SDS011;37259;49.972;19.850;2023-08-06T03:50:44;18;;;13.4;;
51194;SDS011;37259;49.972;19.850;2023-08-06T03:51:44;18;;;13.4;;
51194;SDS011;37259;49.972;19.850;2023-08-06T03:52:44;18;;;13.4;;
51194;SDS011;37259;49.972;19.850;2023-08-06T03:53:44;18;;;13.4;;
51194;SDS011;37259;49.972;19.850;2023-08-06T03:54:44;18;;;13.4;;
51194;SDS011;37259;49.972;19.850;2023-08-06T03:55:44;18;;;13.4;;
51194;SDS011;37259;49.972;19.850;2023-08-06T03:56:44;18;;;13.4;;
51194;SDS011;37259;49.972;19.850;2023-08-06T03:57:44;18;;;13.4;;
51194;SDS011;37259;49.972;19.850;2023-08-06T03:58:44;18;;;13.4;;
51194;SDS011;37259;49.972;19.850;2023-08-06T03:59:44;18;;;13.4;;
51194;SDS011;37259;49.972;19.850;2023-08-06T04:00:44;18;;;13.4;;
51194;SDS011;37259;49.972;19.850;2023-08-06T04:01:44;18;;;13.4;;
51194;SDS011;37259;49.972;19.850;2023-08-06T04:02:44;18;;;13.4;;
51194;SDS011;37259;49.972;19.850;2023-08-06T04:03:44;18;;;13.4;;
51194;SDS011;37259;49.972;19.850;2023-08-06T04:04:44;18;;;13.4;;
51194;SDS011;37259;49.972;19.850;2023-08-06T04:05:44;18;;;13.4;;
51194;SDS011;37259;49.972;19.850;2023-08-06T04:06:44;18;;;13.4;;
51194;SDS011;37259;49.972;19.850;2023-08-06T04:07:44;18;;;13.4;;
51194;SDS011;37259;49.972;19.850;2023-08-06T04:08:44;18;;;13.4;;
51194;SDS011;37259;49.972;19.850;2023-08-06T04:10:00;18;;;13.4;;
51194;SDS011;37259;49.972;19.850;2023-08-06T04:10:44;24.7;;;19.5;;
51194;SDS011;37259;49.972;19.850;2023-08-06T04:11:44;24.7;;;19.5;;
51194;SDS011;37259;49.972;19.850;2023-08-06T04:12:44;24.7;;;19.5;;
51194;SDS011;37259;49.972;19.850;2023-08-06T04:13:44;24.7;;;19.5;;
51194;SDS011;37259;49.972;19.850;2023-08-06T04:14:44;24.7;;;19.5;;
51194;SDS011;37259;49.972;19.850;2023-08-06T04:15:44;24.7;;;19.5;;
51194;SDS011;37259;49.972;19.850;2023-08-06T04:16:44;24.7;;;19.5;;
51194;SDS011;37259;49.972;19.850;2023-08-06T04:17:44;24.7;;;19.5;;
51194;SDS011;37259;49.972;19.850;2023-08-06T04:18:44;24.7;;;19.5;;
51194;SDS011;37259;49.972;19.850;2023-08-06T04:19:44;24.7;;;19.5;;
51194;SDS011;37259;49.972;19.850;2023-08-06T04:20:44;24.7;;;19.5;;
51194;SDS011;37259;49.972;19.850;2023-08-06T04:21:44;24.7;;;19.5;;
51194;SDS011;37259;49.972;19.850;2023-08-06T04:22:44;24.7;;;19.5;;
51194;SDS011;37259;49.972;19.850;2023-08-06T04:23:44;24.7;;;19.5;;
51194;SDS011;37259;49.972;19.850;2023-08-06T04:24:44;24.7;;;19.5;;
51194;SDS011;37259;49.972;19.850;2023-08-06T04:25:44;24.7;;;19.5;;
51194;SDS011;37259;49.972;19.850;2023-08-06T04:26:44;24.7;;;19.5;;
51194;SDS011;37259;49.972;19.850;2023-08-06T04:27:44;24.7;;;19.5;;
51194;SDS011;37259;49.972;19.850;2023-08-06T04:28:44;24.7;;;19.5;;
51194;SDS011;37259;49.972;19.850;2023-08-06T04:29:44;24.7;;;19.5;;
51194;SDS011;37259;49.972;19.850;2023-08-06T04:30:44;24.7;;;19.5;;
51194;SDS011;37259;49.972;19.850;2023-08-06T04:31:44;24.7;;;19.5;;
51194;SDS011;37259;49.972;19.850;2023-08-06T04:32:44;24.7;;;19.5;;
51194;SDS011;37259;49.972;19.850;2023-08-06T04:33:44;24.7;;;19.5;;
51194;SDS011;37259;49.972;19.850;2023-08-06T04:34:44;24.7;;;19.5;;
51194;SDS011;37259;49.972;19.850;2023-08-06T04:35:44;24.7;;;19.5;;
51194;SDS011;37259;49.972;19.850;2023-08-06T04:36:44;24.7;;;19.5;;
51194;SDS011;37259;49.972;19.850;2023-08-06T04:37:44;24.7;;;19.5;;
51194;SDS011;37259;49.972;19.850;2023-08-06T04:38:44;24.7;;;19.5;;
51194;SDS011;37259;49.972;19.850;2023-08-06T04:39:44;24.7;;;19.5;;
51194;SDS011;37259;49.972;19.850;2023-08-06T04:40:44;23.6;;;17.2;;
51194;SDS011;37259;49.972;19.850;2023-08-06T04:41:44;23.6;;;17.2;;
51194;SDS011;37259;49.972;19.850;2023-08-06T04:42:44;23.6;;;17.2;;
51194;SDS011;37259;49.972;19.850;2023-08-06T04:43:44;23.6;;;17.2;;
51194;SDS011;37259;49.972;19.850;2023-08-06T04:44:44;23.6;;;17.2;;
51194;SDS011;37259;49.972;19.850;2023-08-06T04:45:45;23.6;;;17.2;;
51194;SDS011;37259;49.972;19.850;2023-08-06T04:46:44;23.6;;;17.2;;
51194;SDS011;37259;49.972;19.850;2023-08-06T04:47:44;23.6;;;17.2;;
51194;SDS011;37259;49.972;19.850;2023-08-06T04:48:44;23.6;;;17.2;;
51194;SDS011;37259;49.972;19.850;2023-08-06T04:49:44;23.6;;;17.2;;
51194;SDS011;37259;49.972;19.850;2023-08-06T04:50:44;23.6;;;17.2;;
51194;SDS011;37259;49.972;19.850;2023-08-06T04:51:44;23.6;;;17.2;;
51194;SDS011;37259;49.972;19.850;2023-08-06T04:52:44;23.6;;;17.2;;
51194;SDS011;37259;49.972;19.850;2023-08-06T04:53:44;23.6;;;17.2;;
51194;SDS011;37259;49.972;19.850;2023-08-06T04:54:44;23.6;;;17.2;;
51194;SDS011;37259;49.972;19.850;2023-08-06T04:55:44;23.6;;;17.2;;
51194;SDS011;37259;49.972;19.850;2023-08-06T04:56:44;23.6;;;17.2;;
51194;SDS011;37259;49.972;19.850;2023-08-06T04:57:44;23.6;;;17.2;;
51194;SDS011;37259;49.972;19.850;2023-08-06T04:58:44;23.6;;;17.2;;
51194;SDS011;37259;49.972;19.850;2023-08-06T04:59:44;23.6;;;17.2;;
51194;SDS011;37259;49.972;19.850;2023-08-06T05:00:44;23.6;;;17.2;;
51194;SDS011;37259;49.972;19.850;2023-08-06T05:01:44;23.6;;;17.2;;
51194;SDS011;37259;49.972;19.850;2023-08-06T05:02:44;23.6;;;17.2;;
51194;SDS011;37259;49.972;19.850;2023-08-06T05:03:44;23.6;;;17.2;;
51194;SDS011;37259;49.972;19.850;2023-08-06T05:04:44;23.6;;;17.2;;
51194;SDS011;37259;49.972;19.850;2023-08-06T05:05:44;23.6;;;17.2;;
51194;SDS011;37259;49.972;19.850;2023-08-06T05:06:44;23.6;;;17.2;;
51194;SDS011;37259;49.972;19.850;2023-08-06T05:07:45;23.6;;;17.2;;
51194;SDS011;37259;49.972;19.850;2023-08-06T05:08:44;23.6;;;17.2;;
51194;SDS011;37259;49.972;19.850;2023-08-06T05:09:44;23.6;;;17.2;;
51194;SDS011;37259;49.972;19.850;2023-08-06T05:10:44;18.6;;;12.1;;
51194;SDS011;37259;49.972;19.850;2023-08-06T05:11:44;18.6;;;12.1;;
51194;SDS011;37259;49.972;19.850;2023-08-06T05:12:44;18.6;;;12.1;;
51194;SDS011;37259;49.972;19.850;2023-08-06T05:13:44;18.6;;;12.1;;
51194;SDS011;37259;49.972;19.850;2023-08-06T05:14:44;18.6;;;12.1;;
51194;SDS011;37259;49.972;19.850;2023-08-06T05:15:44;18.6;;;12.1;;
51194;SDS011;37259;49.972;19.850;2023-08-06T05:16:44;18.6;;;12.1;;
51194;SDS011;37259;49.972;19.850;2023-08-06T05:17:44;18.6;;;12.1;;
51194;SDS011;37259;49.972;19.850;2023-08-06T05:18:44;18.6;;;12.1;;
51194;SDS011;37259;49.972;19.850;2023-08-06T05:19:44;18.6;;;12.1;;
51194;SDS011;37259;49.972;19.850;2023-08-06T05:20:44;18.6;;;12.1;;
51194;SDS011;37259;49.972;19.850;2023-08-06T05:21:44;18.6;;;12.1;;
51194;SDS011;37259;49.972;19.850;2023-08-06T05:22:44;18.6;;;12.1;;
51194;SDS011;37259;49.972;19.850;2023-08-06T05:23:44;18.6;;;12.1;;
51194;SDS011;37259;49.972;19.850;2023-08-06T05:24:44;18.6;;;12.1;;
51194;SDS011;37259;49.972;19.850;2023-08-06T05:25:44;18.6;;;12.1;;
51194;SDS011;37259;49.972;19.850;2023-08-06T05:26:44;18.6;;;12.1;;
51194;SDS011;37259;49.972;19.850;2023-08-06T05:27:44;18.6;;;12.1;;
51194;SDS011;37259;49.972;19.850;2023-08-06T05:28:44;18.6;;;12.1;;
51194;SDS011;37259;49.972;19.850;2023-08-06T05:29:44;18.6;;;12.1;;
51194;SDS011;37259;49.972;19.850;2023-08-06T05:30:44;18.6;;;12.1;;
51194;SDS011;37259;49.972;19.850;2023-08-06T05:31:44;18.6;;;12.1;;
51194;SDS011;37259;49.972;19.850;2023-08-06T05:32:44;18.6;;;12.1;;
51194;SDS011;37259;49.972;19.850;2023-08-06T05:33:44;18.6;;;12.1;;
51194;SDS011;37259;49.972;19.850;2023-08-06T05:34:44;18.6;;;12.1;;
51194;SDS011;37259;49.972;19.850;2023-08-06T05:35:44;18.6;;;12.1;;
51194;SDS011;37259;49.972;19.850;2023-08-06T05:36:44;18.6;;;12.1;;
51194;SDS011;37259;49.972;19.850;2023-08-06T05:37:44;18.6;;;12.1;;
51194;SDS011;37259;49.972;19.850;2023-08-06T05:38:44;18.6;;;12.1;;
51194;SDS011;37259;49.972;19.850;2023-08-06T05:39:44;18.6;;;12.1;;
51194;SDS011;37259;49.972;19.850;2023-08-06T05:40:44;13.2;;;9.7;;
51194;SDS011;37259;49.972;19.850;2023-08-06T05:41:44;13.2;;;9.7;;
51194;SDS011;37259;49.972;19.850;2023-08-06T05:42:44;13.2;;;9.7;;
51194;SDS011;37259;49.972;19.850;2023-08-06T05:43:44;13.2;;;9.7;;
51194;SDS011;37259;49.972;19.850;2023-08-06T05:44:44;13.2;;;9.7;;
51194;SDS011;37259;49.972;19.850;2023-08-06T05:45:44;13.2;;;9.7;;
51194;SDS011;37259;49.972;19.850;2023-08-06T05:46:44;13.2;;;9.7;;
51194;SDS011;37259;49.972;19.850;2023-08-06T05:47:44;13.2;;;9.7;;
51194;SDS011;37259;49.972;19.850;2023-08-06T05:48:44;13.2;;;9.7;;
51194;SDS011;37259;49.972;19.850;2023-08-06T05:49:44;13.2;;;9.7;;
51194;SDS011;37259;49.972;19.850;2023-08-06T05:50:44;13.2;;;9.7;;
51194;SDS011;37259;49.972;19.850;2023-08-06T05:51:44;13.2;;;9.7;;
51194;SDS011;37259;49.972;19.850;2023-08-06T05:52:44;13.2;;;9.7;;
51194;SDS011;37259;49.972;19.850;2023-08-06T05:53:44;13.2;;;9.7;;
51194;SDS011;37259;49.972;19.850;2023-08-06T05:54:44;13.2;;;9.7;;
51194;SDS011;37259;49.972;19.850;2023-08-06T05:55:44;13.2;;;9.7;;
51194;SDS011;37259;49.972;19.850;2023-08-06T05:56:44;13.2;;;9.7;;
51194;SDS011;37259;49.972;19.850;2023-08-06T05:57:44;13.2;;;9.7;;
51194;SDS011;37259;49.972;19.850;2023-08-06T05:58:44;13.2;;;9.7;;
51194;SDS011;37259;49.972;19.850;2023-08-06T05:59:44;13.2;;;9.7;;